Seabulk Challenge — KNJL — position and weather

sailwx.info

Track history (hours):
 
Tides and Currents Weather Stations Pressure Air Temp Water Temp Dewpoint Dewpoint Depression Visibility Wind Speed Wind Dir Waves Ship Positions

Seabulk Challenge

Owner: Seabulk Tankers, Inc., Fort Lauderdale, FL. More information available from US FCC via Universal Licensing System and Coast Guard Vessel Documentation Center.

Last reported at 2017-Jan-18 19:31 UTC. Time now 2017-Jan-21 21:35 UTC.
Position N 25°14' W 080°06'.

Length 192 m; draft 9.9 m.

Type: Tanker. MMSI: 303104000.

Date/timePositionNaut miles runAvg speedWind from/ knotsBaromVisibWave heightAir tempDewpointWater temp
2017-Jan-18 19:31N 25°14' W 080°06'1111.1
2017-Jan-18 18:32N 25°24' W 080°01'1111.1
2017-Jan-18 17:33N 25°35' W 080°01'1110.7
2017-Jan-18 16:33N 25°45' W 079°60'1110.8
2017-Jan-18 15:33N 25°56' W 079°59'1111.1
2017-Jan-18 14:33N 26°07' W 079°58'1111.1
2017-Jan-18 13:33N 26°18' W 079°57'1111.2
2017-Jan-18 12:33N 26°29' W 079°56'1410.8
2017-Jan-18 11:13N 26°44' W 079°55'710.4
2017-Jan-18 10:33N 26°51' W 079°54'8 7.7
2017-Jan-18 09:33N 26°58' W 079°54'10 9.6
2017-Jan-18 08:31N 27°08' W 079°56'46312.8
2017-Jan-16 20:28N 34°11' W 076°19'28813.7
2017-Jan-15 23:32N 38°53' W 075°05'1313.7
2017-Jan-15 22:33N 39°05' W 075°11'1616.4
2017-Jan-15 21:33N 39°19' W 075°23'1514.8
2017-Jan-15 20:33N 39°31' W 075°33'1212.3
2017-Jan-15 19:33N 39°44' W 075°30'10 9.7
2017-Jan-15 18:33N 39°50' W 075°21'10 9.6
2017-Jan-15 17:33N 39°53' W 075°09'6 6.3
2017-Jan-15 16:33N 39°59' W 075°05'0 0.1
2017-Jan-15 15:33N 39°59' W 075°06'0 0.0
2017-Jan-15 14:33N 39°59' W 075°06'0 0.0
2017-Jan-15 13:33N 39°59' W 075°06'0 0.0
2017-Jan-15 12:33N 39°59' W 075°06'0 0.0
2017-Jan-15 11:30N 39°59' W 075°06'0 0.0
2017-Jan-15 10:32N 39°59' W 075°06'0 0.0
2017-Jan-15 09:33N 39°59' W 075°06'0 0.0
2017-Jan-15 08:33N 39°59' W 075°06'0 0.0
2017-Jan-15 07:33N 39°59' W 075°06'0 0.0
2017-Jan-15 06:30N 39°59' W 075°06'0 0.0
2017-Jan-15 05:33N 39°59' W 075°06'0 0.0
2017-Jan-15 04:33N 39°59' W 075°06'0 0.0
2017-Jan-15 03:33N 39°59' W 075°06'0 0.0
2017-Jan-15 02:33N 39°59' W 075°06'0 0.0
2017-Jan-15 01:33N 39°59' W 075°06'0 0.0
2017-Jan-15 00:33N 39°59' W 075°06'0 0.0
2017-Jan-14 23:33N 39°59' W 075°06'0 0.0
2017-Jan-14 22:33N 39°59' W 075°06'0 0.0
2017-Jan-14 21:33N 39°59' W 075°06'0 0.0
2017-Jan-14 20:33N 39°59' W 075°06'0 0.0
2017-Jan-14 19:33N 39°59' W 075°06'0 0.0
2017-Jan-14 18:33N 39°59' W 075°06'0 0.0
2017-Jan-14 17:33N 39°59' W 075°06'0 0.0
2017-Jan-14 16:33N 39°59' W 075°06'0 0.0
2017-Jan-14 15:33N 39°59' W 075°06'0 0.0
2017-Jan-14 14:33N 39°59' W 075°06'0 0.0
2017-Jan-14 13:33N 39°59' W 075°06'0 0.0
2017-Jan-14 12:33N 39°59' W 075°06'0 0.0
2017-Jan-14 11:33N 39°59' W 075°06'0 0.0
2017-Jan-14 10:33N 39°59' W 075°06'0 0.0
2017-Jan-14 09:33N 39°59' W 075°06'0 0.0
2017-Jan-14 08:33N 39°59' W 075°06'0 0.0
2017-Jan-14 07:33N 39°59' W 075°06'0 0.0
2017-Jan-14 06:33N 39°59' W 075°06'0 0.0
2017-Jan-14 05:33N 39°59' W 075°06'0 0.0
2017-Jan-14 04:33N 39°59' W 075°06'0 0.0
2017-Jan-14 03:33N 39°59' W 075°06'0 0.0
2017-Jan-13 23:23N 39°59' W 075°06'0 0.0
2017-Jan-13 22:29N 39°59' W 075°06'0 0.0
2017-Jan-13 21:24N 39°59' W 075°06'0 0.0
2017-Jan-13 20:33N 39°59' W 075°06'0 0.1
2017-Jan-13 19:33N 39°59' W 075°06'5 5.0
2017-Jan-13 18:33N 39°54' W 075°08'7 7.1
2017-Jan-13 17:33N 39°51' W 075°16'7 7.5
2017-Jan-13 16:33N 39°48' W 075°25'8 7.6
2017-Jan-13 15:33N 39°42' W 075°31'7 7.4
2017-Jan-13 14:33N 39°35' W 075°33'1010.3
2017-Jan-13 13:34N 39°25' W 075°30'1515.4
2017-Jan-13 12:34N 39°13' W 075°17'1615.7
2017-Jan-13 11:33N 38°59' W 075°08'1412.8
2017-Jan-13 10:29N 38°47' W 075°01'5 4.8
2017-Jan-13 09:29N 38°45' W 074°55'73914.4
2017-Jan-11 06:14N 27°07' W 079°46'5018.1
2017-Jan-11 03:30N 26°18' W 079°51'1717.8
2017-Jan-11 02:33N 26°01' W 079°53'1817.6
2017-Jan-11 01:33N 25°44' W 079°55'1717.4
2017-Jan-11 00:33N 25°26' W 079°58'  
Track history (hours):
 
Tides and Currents Weather Stations Pressure Air Temp Water Temp Dewpoint Dewpoint Depression Visibility Wind Speed Wind Dir Waves Ship Positions

Seabulk Challenge

Owner: Seabulk Tankers, Inc., Fort Lauderdale, FL. More information available from US FCC via Universal Licensing System and Coast Guard Vessel Documentation Center.

Last reported at 2017-Jan-18 19:31 UTC. Time now 2017-Jan-21 21:35 UTC.
Position N 25°14' W 080°06'.

Length 192 m; draft 9.9 m.

Type: Tanker. MMSI: 303104000.

Date/timePositionNaut miles runAvg speedWind from/ knotsBaromVisibWave heightAir tempDewpointWater temp
2017-Jan-18 19:31N 25°14' W 080°06'1111.1
2017-Jan-18 18:32N 25°24' W 080°01'1111.1
2017-Jan-18 17:33N 25°35' W 080°01'1110.7
2017-Jan-18 16:33N 25°45' W 079°60'1110.8
2017-Jan-18 15:33N 25°56' W 079°59'1111.1
2017-Jan-18 14:33N 26°07' W 079°58'1111.1
2017-Jan-18 13:33N 26°18' W 079°57'1111.2
2017-Jan-18 12:33N 26°29' W 079°56'1410.8
2017-Jan-18 11:13N 26°44' W 079°55'710.4
2017-Jan-18 10:33N 26°51' W 079°54'8 7.7
2017-Jan-18 09:33N 26°58' W 079°54'10 9.6
2017-Jan-18 08:31N 27°08' W 079°56'46312.8
2017-Jan-16 20:28N 34°11' W 076°19'28813.7
2017-Jan-15 23:32N 38°53' W 075°05'1313.7
2017-Jan-15 22:33N 39°05' W 075°11'1616.4
2017-Jan-15 21:33N 39°19' W 075°23'1514.8
2017-Jan-15 20:33N 39°31' W 075°33'1212.3
2017-Jan-15 19:33N 39°44' W 075°30'10 9.7
2017-Jan-15 18:33N 39°50' W 075°21'10 9.6
2017-Jan-15 17:33N 39°53' W 075°09'6 6.3
2017-Jan-15 16:33N 39°59' W 075°05'0 0.1
2017-Jan-15 15:33N 39°59' W 075°06'0 0.0
2017-Jan-15 14:33N 39°59' W 075°06'0 0.0
2017-Jan-15 13:33N 39°59' W 075°06'0 0.0
2017-Jan-15 12:33N 39°59' W 075°06'0 0.0
2017-Jan-15 11:30N 39°59' W 075°06'0 0.0
2017-Jan-15 10:32N 39°59' W 075°06'0 0.0
2017-Jan-15 09:33N 39°59' W 075°06'0 0.0
2017-Jan-15 08:33N 39°59' W 075°06'0 0.0
2017-Jan-15 07:33N 39°59' W 075°06'0 0.0
2017-Jan-15 06:30N 39°59' W 075°06'0 0.0
2017-Jan-15 05:33N 39°59' W 075°06'0 0.0
2017-Jan-15 04:33N 39°59' W 075°06'0 0.0
2017-Jan-15 03:33N 39°59' W 075°06'0 0.0
2017-Jan-15 02:33N 39°59' W 075°06'0 0.0
2017-Jan-15 01:33N 39°59' W 075°06'0 0.0
2017-Jan-15 00:33N 39°59' W 075°06'0 0.0
2017-Jan-14 23:33N 39°59' W 075°06'0 0.0
2017-Jan-14 22:33N 39°59' W 075°06'0 0.0
2017-Jan-14 21:33N 39°59' W 075°06'0 0.0
2017-Jan-14 20:33N 39°59' W 075°06'0 0.0
2017-Jan-14 19:33N 39°59' W 075°06'0 0.0
2017-Jan-14 18:33N 39°59' W 075°06'0 0.0
2017-Jan-14 17:33N 39°59' W 075°06'0 0.0
2017-Jan-14 16:33N 39°59' W 075°06'0 0.0
2017-Jan-14 15:33N 39°59' W 075°06'0 0.0
2017-Jan-14 14:33N 39°59' W 075°06'0 0.0
2017-Jan-14 13:33N 39°59' W 075°06'0 0.0
2017-Jan-14 12:33N 39°59' W 075°06'0 0.0
2017-Jan-14 11:33N 39°59' W 075°06'0 0.0
2017-Jan-14 10:33N 39°59' W 075°06'0 0.0
2017-Jan-14 09:33N 39°59' W 075°06'0 0.0
2017-Jan-14 08:33N 39°59' W 075°06'0 0.0
2017-Jan-14 07:33N 39°59' W 075°06'0 0.0
2017-Jan-14 06:33N 39°59' W 075°06'0 0.0
2017-Jan-14 05:33N 39°59' W 075°06'0 0.0
2017-Jan-14 04:33N 39°59' W 075°06'0 0.0
2017-Jan-14 03:33N 39°59' W 075°06'0 0.0
2017-Jan-13 23:23N 39°59' W 075°06'0 0.0
2017-Jan-13 22:29N 39°59' W 075°06'0 0.0
2017-Jan-13 21:24N 39°59' W 075°06'0 0.0
2017-Jan-13 20:33N 39°59' W 075°06'0 0.1
2017-Jan-13 19:33N 39°59' W 075°06'5 5.0
2017-Jan-13 18:33N 39°54' W 075°08'7 7.1
2017-Jan-13 17:33N 39°51' W 075°16'7 7.5
2017-Jan-13 16:33N 39°48' W 075°25'8 7.6
2017-Jan-13 15:33N 39°42' W 075°31'7 7.4
2017-Jan-13 14:33N 39°35' W 075°33'1010.3
2017-Jan-13 13:34N 39°25' W 075°30'1515.4
2017-Jan-13 12:34N 39°13' W 075°17'1615.7
2017-Jan-13 11:33N 38°59' W 075°08'1412.8
2017-Jan-13 10:29N 38°47' W 075°01'5 4.8
2017-Jan-13 09:29N 38°45' W 074°55'73914.4
2017-Jan-11 06:14N 27°07' W 079°46'5018.1
2017-Jan-11 03:30N 26°18' W 079°51'1717.8
2017-Jan-11 02:33N 26°01' W 079°53'1817.6
2017-Jan-11 01:33N 25°44' W 079°55'1717.4
2017-Jan-11 00:33N 25°26' W 079°58'  

Dump ship's entire track history